createdAt,value
2022-11-30T00:00:36.313Z,1006.59
2022-11-30T00:01:36.290Z,1006.56
2022-11-30T00:02:36.408Z,1006.60
2022-11-30T00:03:36.264Z,1006.59
2022-11-30T00:04:36.250Z,1006.59
2022-11-30T00:05:36.221Z,1006.58
2022-11-30T00:06:36.202Z,1006.58
2022-11-30T00:07:36.262Z,1006.55
2022-11-30T00:08:36.217Z,1006.57
2022-11-30T00:09:36.189Z,1006.54
2022-11-30T00:10:36.159Z,1006.52
2022-11-30T00:11:36.162Z,1006.49
2022-11-30T00:12:36.132Z,1006.54
2022-11-30T00:13:36.151Z,1006.55
2022-11-30T00:14:36.099Z,1006.52
2022-11-30T00:15:36.091Z,1006.52
2022-11-30T00:16:36.144Z,1006.50
2022-11-30T00:17:36.072Z,1006.51
2022-11-30T00:18:36.074Z,1006.53
2022-11-30T00:19:36.054Z,1006.57
2022-11-30T00:20:36.036Z,1006.54
2022-11-30T00:21:36.021Z,1006.58
2022-11-30T00:22:36.012Z,1006.57
2022-11-30T00:23:36.018Z,1006.57
2022-11-30T00:24:35.970Z,1006.56
2022-11-30T00:25:35.970Z,1006.56
2022-11-30T00:26:35.933Z,1006.57
2022-11-30T00:27:35.938Z,1006.62
2022-11-30T00:28:35.940Z,1006.58
2022-11-30T00:29:35.912Z,1006.64
2022-11-30T00:30:35.970Z,1006.65
2022-11-30T00:31:35.918Z,1006.65
2022-11-30T00:32:35.869Z,1006.66
2022-11-30T00:33:35.873Z,1006.62
2022-11-30T00:34:35.840Z,1006.69
2022-11-30T00:35:35.837Z,1006.63
2022-11-30T00:36:35.818Z,1006.62
2022-11-30T00:37:35.809Z,1006.61
2022-11-30T00:38:35.806Z,1006.61
2022-11-30T00:39:35.927Z,1006.60
2022-11-30T00:40:35.776Z,1006.63
2022-11-30T00:41:35.751Z,1006.61
2022-11-30T00:42:35.729Z,1006.63
2022-11-30T00:43:35.740Z,1006.68
2022-11-30T00:44:35.720Z,1006.63
2022-11-30T00:45:35.701Z,1006.65
2022-11-30T00:46:35.753Z,1006.66
2022-11-30T00:47:35.664Z,1006.64
2022-11-30T00:48:35.667Z,1006.63
2022-11-30T00:49:35.632Z,1006.71
2022-11-30T00:50:35.640Z,1006.67
2022-11-30T00:51:35.614Z,1006.65
2022-11-30T00:52:35.605Z,1006.70
2022-11-30T00:53:35.607Z,1006.68
2022-11-30T00:54:35.567Z,1006.72
2022-11-30T00:55:35.555Z,1006.70
2022-11-30T00:56:35.546Z,1006.67
2022-11-30T00:57:35.527Z,1006.72
2022-11-30T00:58:35.537Z,1006.74
2022-11-30T00:59:35.493Z,1006.68
2022-11-30T01:00:35.502Z,1006.67
2022-11-30T01:01:35.563Z,1006.68
2022-11-30T01:02:35.641Z,1006.70
2022-11-30T01:03:35.455Z,1006.72
2022-11-30T01:04:35.444Z,1006.71
2022-11-30T01:05:35.436Z,1006.71
2022-11-30T01:06:35.417Z,1006.70
2022-11-30T01:07:35.431Z,1006.71
2022-11-30T01:08:35.411Z,1006.70
2022-11-30T01:09:35.365Z,1006.74
2022-11-30T01:10:35.353Z,1006.67
2022-11-30T01:11:35.356Z,1006.71
2022-11-30T01:12:35.333Z,1006.71
2022-11-30T01:13:35.326Z,1006.71
2022-11-30T01:14:35.302Z,1006.70
2022-11-30T01:15:35.342Z,1006.67
2022-11-30T01:16:35.274Z,1006.71
2022-11-30T01:17:35.257Z,1006.72
2022-11-30T01:18:35.274Z,1006.73
2022-11-30T01:19:35.231Z,1006.74
2022-11-30T01:20:35.220Z,1006.79
2022-11-30T01:21:35.240Z,1006.70
2022-11-30T01:22:35.195Z,1006.82
2022-11-30T01:23:35.186Z,1006.80
2022-11-30T01:24:35.161Z,1006.80
2022-11-30T01:25:35.153Z,1006.75
2022-11-30T01:26:35.141Z,1006.76
2022-11-30T01:27:35.120Z,1006.72
2022-11-30T01:28:35.129Z,1006.70
2022-11-30T01:29:35.114Z,1006.74
2022-11-30T01:30:35.130Z,1006.73
2022-11-30T01:31:35.067Z,1006.77
2022-11-30T01:32:35.060Z,1006.76
2022-11-30T01:33:35.061Z,1006.87
2022-11-30T01:34:35.039Z,1006.78
2022-11-30T01:35:35.021Z,1006.85
2022-11-30T01:36:35.039Z,1006.84
2022-11-30T01:37:34.999Z,1006.79
2022-11-30T01:38:34.987Z,1006.77
2022-11-30T01:39:34.970Z,1006.82
2022-11-30T01:40:34.950Z,1006.80
2022-11-30T01:41:34.954Z,1006.79
2022-11-30T01:42:34.927Z,1006.81
2022-11-30T01:43:34.925Z,1006.83
2022-11-30T01:44:34.911Z,1006.81
2022-11-30T01:45:34.895Z,1006.85
2022-11-30T01:46:34.921Z,1006.82
2022-11-30T01:47:34.881Z,1006.84
2022-11-30T01:48:34.876Z,1006.83
2022-11-30T01:49:34.844Z,1006.83
2022-11-30T01:50:34.835Z,1006.80
2022-11-30T01:51:34.817Z,1006.81
2022-11-30T01:52:34.825Z,1006.81
2022-11-30T01:53:34.796Z,1006.81
2022-11-30T01:54:34.766Z,1006.80
2022-11-30T01:55:34.747Z,1006.78
2022-11-30T01:56:34.736Z,1006.75
2022-11-30T01:57:34.716Z,1006.77
2022-11-30T01:58:34.731Z,1006.79
2022-11-30T01:59:34.700Z,1006.76
2022-11-30T02:00:34.687Z,1006.77
2022-11-30T02:01:34.785Z,1006.80
2022-11-30T02:02:34.678Z,1006.76
2022-11-30T02:03:34.684Z,1006.76
2022-11-30T02:04:34.635Z,1006.78
2022-11-30T02:05:34.613Z,1006.81
2022-11-30T02:06:34.605Z,1006.81
2022-11-30T02:07:34.690Z,1006.84
2022-11-30T02:08:34.711Z,1006.84
2022-11-30T02:09:34.572Z,1006.85
2022-11-30T02:10:34.545Z,1006.85
2022-11-30T02:11:34.533Z,1006.82
2022-11-30T02:12:34.537Z,1006.87
2022-11-30T02:13:34.532Z,1006.79
2022-11-30T02:14:34.499Z,1006.81
2022-11-30T02:15:34.690Z,1006.80
2022-11-30T02:16:34.474Z,1006.82
2022-11-30T02:17:34.452Z,1006.79
2022-11-30T02:18:34.450Z,1006.80
2022-11-30T02:19:34.430Z,1006.78
2022-11-30T02:20:34.413Z,1006.85
2022-11-30T02:21:34.408Z,1006.86
2022-11-30T02:22:34.403Z,1006.84
2022-11-30T02:23:40.945Z,1006.83
2022-11-30T02:24:35.360Z,1006.86
2022-11-30T02:25:34.340Z,1006.83
2022-11-30T02:26:34.341Z,1006.80
2022-11-30T02:27:34.309Z,1006.82
2022-11-30T02:28:34.335Z,1006.85
2022-11-30T02:29:34.296Z,1006.84
2022-11-30T02:30:34.283Z,1006.85
2022-11-30T02:31:34.261Z,1006.81
2022-11-30T02:32:34.258Z,1006.79
2022-11-30T02:33:34.251Z,1006.83
2022-11-30T02:34:34.228Z,1006.79
2022-11-30T02:35:34.210Z,1006.83
2022-11-30T02:36:34.210Z,1006.88
2022-11-30T02:37:34.189Z,1006.83
2022-11-30T02:38:34.196Z,1006.88
2022-11-30T02:39:34.148Z,1006.83
2022-11-30T02:40:34.182Z,1006.85
2022-11-30T02:41:37.907Z,1006.83
2022-11-30T02:42:34.117Z,1006.84
2022-11-30T02:43:34.120Z,1006.86
2022-11-30T02:44:34.097Z,1006.88
2022-11-30T02:45:34.075Z,1006.91
2022-11-30T02:46:34.152Z,1006.94
2022-11-30T02:47:34.068Z,1006.96
2022-11-30T02:48:34.053Z,1006.96
2022-11-30T02:49:34.031Z,1006.98
2022-11-30T02:50:34.006Z,1006.93
2022-11-30T02:51:33.996Z,1006.99
2022-11-30T02:52:33.995Z,1006.91
2022-11-30T02:53:33.984Z,1006.94
2022-11-30T02:54:33.967Z,1006.96
2022-11-30T02:55:33.948Z,1006.95
2022-11-30T02:56:33.951Z,1006.95
2022-11-30T02:57:33.926Z,1006.99
2022-11-30T02:58:33.926Z,1006.99
2022-11-30T02:59:33.883Z,1006.98
2022-11-30T03:00:33.884Z,1006.99
2022-11-30T03:01:33.892Z,1006.97
2022-11-30T03:02:33.911Z,1006.99
2022-11-30T03:03:33.847Z,1006.96
2022-11-30T03:04:33.825Z,1007.01
2022-11-30T03:05:33.815Z,1007.02
2022-11-30T03:06:33.802Z,1007.00
2022-11-30T03:07:33.817Z,1006.98
2022-11-30T03:08:33.797Z,1007.03
2022-11-30T03:09:33.765Z,1007.01
2022-11-30T03:10:33.773Z,1007.01
2022-11-30T03:11:33.754Z,1006.97
2022-11-30T03:12:33.725Z,1007.00
2022-11-30T03:13:33.717Z,1006.99
2022-11-30T03:14:33.705Z,1007.02
2022-11-30T03:15:33.711Z,1007.01
2022-11-30T03:16:33.683Z,1007.03
2022-11-30T03:17:33.665Z,1006.99
2022-11-30T03:18:33.654Z,1007.01
2022-11-30T03:19:33.632Z,1007.02
2022-11-30T03:20:33.629Z,1007.02
2022-11-30T03:21:33.605Z,1006.99
2022-11-30T03:22:33.590Z,1007.00
2022-11-30T03:23:33.584Z,1007.05
2022-11-30T03:24:33.561Z,1007.03
2022-11-30T03:25:33.550Z,1007.05
2022-11-30T03:26:33.532Z,1007.13
2022-11-30T03:27:33.521Z,1007.10
2022-11-30T03:28:33.531Z,1007.09
2022-11-30T03:29:33.493Z,1007.08
2022-11-30T03:30:33.496Z,1007.09
2022-11-30T03:31:33.535Z,1007.08
2022-11-30T03:32:33.451Z,1007.06
2022-11-30T03:33:33.452Z,1007.11
2022-11-30T03:34:33.444Z,1007.09
2022-11-30T03:35:33.448Z,1007.07
2022-11-30T03:36:33.401Z,1007.05
2022-11-30T03:37:33.386Z,1007.06
2022-11-30T03:38:33.398Z,1007.06
2022-11-30T03:39:33.359Z,1007.04
2022-11-30T03:40:33.339Z,1007.05
2022-11-30T03:41:33.340Z,1007.12
2022-11-30T03:42:33.343Z,1007.08
2022-11-30T03:43:33.356Z,1007.15
2022-11-30T03:44:33.298Z,1007.19
2022-11-30T03:45:33.276Z,1007.21
2022-11-30T03:46:33.336Z,1007.23
2022-11-30T03:47:33.279Z,1007.20
2022-11-30T03:48:33.279Z,1007.23
2022-11-30T03:49:33.226Z,1007.25
2022-11-30T03:50:33.232Z,1007.23
2022-11-30T03:51:33.200Z,1007.26
2022-11-30T03:52:33.199Z,1007.29
2022-11-30T03:53:33.186Z,1007.31
2022-11-30T03:54:33.168Z,1007.30
2022-11-30T03:55:33.157Z,1007.28
2022-11-30T03:56:33.137Z,1007.31
2022-11-30T03:57:33.119Z,1007.28
2022-11-30T03:58:33.107Z,1007.34
2022-11-30T03:59:33.128Z,1007.29
2022-11-30T04:00:33.078Z,1007.30
2022-11-30T04:01:33.089Z,1007.31
2022-11-30T04:02:33.097Z,1007.29
2022-11-30T04:03:33.066Z,1007.31
2022-11-30T04:04:33.068Z,1007.32
2022-11-30T04:05:33.036Z,1007.31
2022-11-30T04:06:33.019Z,1007.31
2022-11-30T04:07:33.012Z,1007.28
2022-11-30T04:08:33.001Z,1007.33
2022-11-30T04:09:32.971Z,1007.30
2022-11-30T04:10:32.956Z,1007.32
2022-11-30T04:11:32.939Z,1007.31
2022-11-30T04:12:32.954Z,1007.34
2022-11-30T04:13:32.928Z,1007.32
2022-11-30T04:14:32.905Z,1007.31
2022-11-30T04:15:32.897Z,1007.30
2022-11-30T04:16:32.926Z,1007.29
2022-11-30T04:17:32.862Z,1007.27
2022-11-30T04:18:32.854Z,1007.24
2022-11-30T04:19:32.824Z,1007.22
2022-11-30T04:20:36.059Z,1007.27
2022-11-30T04:21:33.823Z,1007.24
2022-11-30T04:22:32.794Z,1007.29
2022-11-30T04:23:32.792Z,1007.26
2022-11-30T04:24:32.765Z,1007.24
2022-11-30T04:25:32.755Z,1007.21
2022-11-30T04:26:32.755Z,1007.25
2022-11-30T04:27:32.716Z,1007.23
2022-11-30T04:28:32.767Z,1007.22
2022-11-30T04:29:32.691Z,1007.27
2022-11-30T04:30:32.674Z,1007.26
2022-11-30T04:31:32.732Z,1007.24
2022-11-30T04:32:32.652Z,1007.27
2022-11-30T04:33:32.663Z,1007.28
2022-11-30T04:34:32.630Z,1007.24
2022-11-30T04:35:32.609Z,1007.29
2022-11-30T04:36:32.611Z,1007.28
2022-11-30T04:37:32.581Z,1007.27
2022-11-30T04:38:32.586Z,1007.26
2022-11-30T04:39:32.555Z,1007.23
2022-11-30T04:40:32.552Z,1007.29
2022-11-30T04:41:32.538Z,1007.30
2022-11-30T04:42:32.530Z,1007.31
2022-11-30T04:43:32.513Z,1007.30
2022-11-30T04:44:32.531Z,1007.30
2022-11-30T04:45:35.294Z,1007.29
2022-11-30T04:46:32.496Z,1007.29
2022-11-30T04:47:32.450Z,1007.30
2022-11-30T04:48:32.449Z,1007.27
2022-11-30T04:49:32.422Z,1007.30
2022-11-30T04:50:32.413Z,1007.29
2022-11-30T04:51:32.406Z,1007.31
2022-11-30T04:52:32.389Z,1007.34
2022-11-30T04:53:32.384Z,1007.33
2022-11-30T04:54:32.348Z,1007.34
2022-11-30T04:55:32.338Z,1007.28
2022-11-30T04:56:32.318Z,1007.29
2022-11-30T04:57:32.317Z,1007.32
2022-11-30T04:58:32.302Z,1007.36
2022-11-30T04:59:32.298Z,1007.32
2022-11-30T05:00:32.266Z,1007.35
2022-11-30T05:01:32.285Z,1007.32
2022-11-30T05:02:32.259Z,1007.34
2022-11-30T05:03:32.250Z,1007.33
2022-11-30T05:04:32.244Z,1007.34
2022-11-30T05:05:32.208Z,1007.36
2022-11-30T05:06:32.204Z,1007.35
2022-11-30T05:07:32.261Z,1007.33
2022-11-30T05:08:32.180Z,1007.32
2022-11-30T05:09:32.156Z,1007.35
2022-11-30T05:10:32.139Z,1007.37
2022-11-30T05:11:32.131Z,1007.32
2022-11-30T05:12:32.116Z,1007.31
2022-11-30T05:13:32.105Z,1007.34
2022-11-30T05:14:32.087Z,1007.32
2022-11-30T05:15:32.096Z,1007.32
2022-11-30T05:16:32.080Z,1007.29
2022-11-30T05:17:32.056Z,1007.26
2022-11-30T05:18:32.044Z,1007.32
2022-11-30T05:19:32.066Z,1007.35
2022-11-30T05:20:32.004Z,1007.35
2022-11-30T05:21:32.007Z,1007.40
2022-11-30T05:22:31.996Z,1007.38
2022-11-30T05:23:31.974Z,1007.38
2022-11-30T05:24:31.954Z,1007.44
2022-11-30T05:25:31.944Z,1007.43
2022-11-30T05:26:31.924Z,1007.43
2022-11-30T05:27:31.926Z,1007.39
2022-11-30T05:28:31.907Z,1007.38
2022-11-30T05:29:31.892Z,1007.37
2022-11-30T05:30:31.860Z,1007.43
2022-11-30T05:31:31.964Z,1007.39
2022-11-30T05:32:31.846Z,1007.39
2022-11-30T05:33:31.845Z,1007.39
2022-11-30T05:34:41.314Z,1007.45
2022-11-30T05:35:32.815Z,1007.46
2022-11-30T05:36:31.785Z,1007.47
2022-11-30T05:37:31.773Z,1007.47
2022-11-30T05:38:31.773Z,1007.44
2022-11-30T05:39:31.769Z,1007.45
2022-11-30T05:40:31.732Z,1007.46
2022-11-30T05:41:31.723Z,1007.47
2022-11-30T05:42:31.691Z,1007.49
2022-11-30T05:43:31.713Z,1007.47
2022-11-30T05:44:31.688Z,1007.48
2022-11-30T05:45:31.685Z,1007.53
2022-11-30T05:46:31.767Z,1007.46
2022-11-30T05:47:31.662Z,1007.50
2022-11-30T05:48:31.640Z,1007.48
2022-11-30T05:49:31.624Z,1007.54
2022-11-30T05:50:31.593Z,1007.55
2022-11-30T05:51:31.589Z,1007.53
2022-11-30T05:52:31.623Z,1007.54
2022-11-30T05:53:31.609Z,1007.58
2022-11-30T05:54:31.558Z,1007.57
2022-11-30T05:55:31.539Z,1007.57
2022-11-30T05:56:31.513Z,1007.58
2022-11-30T05:57:31.504Z,1007.59
2022-11-30T05:58:31.490Z,1007.59
2022-11-30T05:59:31.490Z,1007.63
2022-11-30T06:00:31.493Z,1007.57
2022-11-30T06:01:31.448Z,1007.61
2022-11-30T06:02:31.556Z,1007.62
2022-11-30T06:03:31.466Z,1007.58
2022-11-30T06:04:31.407Z,1007.61
2022-11-30T06:05:31.408Z,1007.62
2022-11-30T06:06:31.376Z,1007.67
2022-11-30T06:07:31.398Z,1007.63
2022-11-30T06:08:31.368Z,1007.70
2022-11-30T06:09:31.348Z,1007.65
2022-11-30T06:10:31.329Z,1007.70
2022-11-30T06:11:31.315Z,1007.74
2022-11-30T06:12:31.297Z,1007.73
2022-11-30T06:13:31.309Z,1007.77
2022-11-30T06:14:31.267Z,1007.73
2022-11-30T06:15:31.265Z,1007.76
2022-11-30T06:16:31.312Z,1007.79
2022-11-30T06:17:31.235Z,1007.78
2022-11-30T06:18:31.235Z,1007.81
2022-11-30T06:19:31.226Z,1007.76
2022-11-30T06:20:31.207Z,1007.76
2022-11-30T06:21:31.200Z,1007.76
2022-11-30T06:22:31.211Z,1007.74
2022-11-30T06:23:31.178Z,1007.74
2022-11-30T06:24:31.144Z,1007.76
2022-11-30T06:25:31.126Z,1007.75
2022-11-30T06:26:31.110Z,1007.78
2022-11-30T06:27:31.103Z,1007.76
2022-11-30T06:28:31.095Z,1007.78
2022-11-30T06:29:31.092Z,1007.74
2022-11-30T06:30:31.076Z,1007.76
2022-11-30T06:31:31.085Z,1007.77
2022-11-30T06:32:31.033Z,1007.84
2022-11-30T06:33:31.053Z,1007.81
2022-11-30T06:34:31.033Z,1007.89
2022-11-30T06:35:31.005Z,1007.86
2022-11-30T06:36:35.691Z,1007.83
2022-11-30T06:37:31.993Z,1007.81
2022-11-30T06:38:30.964Z,1007.79
2022-11-30T06:40:04.388Z,1007.80
2022-11-30T06:40:31.931Z,1007.84
2022-11-30T06:41:30.932Z,1007.82
2022-11-30T06:42:30.940Z,1007.84
2022-11-30T06:43:30.910Z,1007.83
2022-11-30T06:44:30.881Z,1007.78
2022-11-30T06:45:30.927Z,1007.80
2022-11-30T06:46:30.854Z,1007.83
2022-11-30T06:47:30.832Z,1007.88
2022-11-30T06:48:30.835Z,1007.88
2022-11-30T06:49:30.813Z,1007.92
2022-11-30T06:50:30.810Z,1007.90
2022-11-30T06:51:30.791Z,1007.95
2022-11-30T06:52:30.788Z,1007.96
2022-11-30T06:53:30.791Z,1007.94
2022-11-30T06:54:30.777Z,1007.96
2022-11-30T06:55:30.767Z,1007.99
2022-11-30T06:56:30.712Z,1008.04
2022-11-30T06:57:30.699Z,1008.02
2022-11-30T06:58:30.698Z,1008.02
2022-11-30T06:59:30.692Z,1008.04
2022-11-30T07:00:30.651Z,1008.03
2022-11-30T07:01:30.738Z,1008.03
2022-11-30T07:02:30.646Z,1008.03
2022-11-30T07:03:30.638Z,1008.01
2022-11-30T07:04:30.729Z,1008.03
2022-11-30T07:05:30.599Z,1008.04
2022-11-30T07:06:30.591Z,1008.02
2022-11-30T07:07:30.623Z,1008.03
2022-11-30T07:08:30.563Z,1008.05
2022-11-30T07:09:30.542Z,1008.04
2022-11-30T07:10:30.527Z,1008.07
2022-11-30T07:11:30.508Z,1008.06
2022-11-30T07:12:30.500Z,1008.11
2022-11-30T07:13:30.515Z,1008.09
2022-11-30T07:14:30.475Z,1008.09
2022-11-30T07:15:30.458Z,1008.08
2022-11-30T07:16:30.485Z,1008.08
2022-11-30T07:17:30.427Z,1008.14
2022-11-30T07:18:32.262Z,1008.15
2022-11-30T07:19:30.396Z,1008.15
2022-11-30T07:20:30.388Z,1008.14
2022-11-30T07:21:30.379Z,1008.18
2022-11-30T07:22:30.367Z,1008.19
2022-11-30T07:23:30.366Z,1008.12
2022-11-30T07:24:30.367Z,1008.17
2022-11-30T07:25:30.344Z,1008.14
2022-11-30T07:26:30.316Z,1008.14
2022-11-30T07:27:30.305Z,1008.11
2022-11-30T07:28:30.295Z,1008.15
2022-11-30T07:29:30.283Z,1008.17
2022-11-30T07:30:30.258Z,1008.12
2022-11-30T07:31:30.372Z,1008.13
2022-11-30T07:32:30.224Z,1008.16
2022-11-30T07:33:30.256Z,1008.19
2022-11-30T07:34:30.206Z,1008.14
2022-11-30T07:35:30.196Z,1008.13
2022-11-30T07:36:30.174Z,1008.19
2022-11-30T07:37:30.173Z,1008.18
2022-11-30T07:38:30.181Z,1008.21
2022-11-30T07:39:30.144Z,1008.18
2022-11-30T07:40:30.130Z,1008.19
2022-11-30T07:41:30.114Z,1008.22
2022-11-30T07:42:30.096Z,1008.20
2022-11-30T07:43:30.103Z,1008.21
2022-11-30T07:44:30.072Z,1008.20
2022-11-30T07:45:30.088Z,1008.19
2022-11-30T07:46:30.043Z,1008.21
2022-11-30T07:47:30.038Z,1008.23
2022-11-30T07:48:30.027Z,1008.25
2022-11-30T07:49:30.071Z,1008.28
2022-11-30T07:50:29.991Z,1008.29
2022-11-30T07:51:29.993Z,1008.26
2022-11-30T07:52:30.002Z,1008.28
2022-11-30T07:53:29.969Z,1008.28
2022-11-30T07:54:29.947Z,1008.27
2022-11-30T07:55:29.936Z,1008.30
2022-11-30T07:56:29.918Z,1008.28
2022-11-30T07:57:29.905Z,1008.30
2022-11-30T07:58:29.897Z,1008.27
2022-11-30T07:59:29.893Z,1008.30
2022-11-30T08:00:29.865Z,1008.30
2022-11-30T08:01:29.926Z,1008.25
2022-11-30T08:02:29.889Z,1008.25
2022-11-30T08:03:33.713Z,1008.25
2022-11-30T08:04:30.839Z,1008.26
2022-11-30T08:05:29.802Z,1008.30
2022-11-30T08:06:29.804Z,1008.30
2022-11-30T08:07:29.825Z,1008.31
2022-11-30T08:08:29.764Z,1008.30
2022-11-30T08:09:29.750Z,1008.30
2022-11-30T08:10:29.725Z,1008.32
2022-11-30T08:11:29.720Z,1008.26
2022-11-30T08:12:29.693Z,1008.29
2022-11-30T08:13:29.725Z,1008.28
2022-11-30T08:14:29.660Z,1008.28
2022-11-30T08:15:33.057Z,1008.26
2022-11-30T08:16:29.691Z,1008.26
2022-11-30T08:17:29.628Z,1008.27
2022-11-30T08:18:29.626Z,1008.30
2022-11-30T08:19:29.600Z,1008.34
2022-11-30T08:20:29.593Z,1008.33
2022-11-30T08:21:29.590Z,1008.38
2022-11-30T08:22:29.560Z,1008.35
2022-11-30T08:23:29.566Z,1008.37
2022-11-30T08:24:29.589Z,1008.35
2022-11-30T08:25:29.517Z,1008.32
2022-11-30T08:26:29.507Z,1008.32
2022-11-30T08:27:29.529Z,1008.31
2022-11-30T08:28:29.537Z,1008.38
2022-11-30T08:29:29.519Z,1008.34
2022-11-30T08:30:32.396Z,1008.34
2022-11-30T08:31:29.483Z,1008.31
2022-11-30T08:32:29.426Z,1008.31
2022-11-30T08:33:30.965Z,1008.28
2022-11-30T08:34:29.399Z,1008.32
2022-11-30T08:35:29.395Z,1008.30
2022-11-30T08:36:29.388Z,1008.30
2022-11-30T08:37:29.371Z,1008.30
2022-11-30T08:38:29.369Z,1008.30
2022-11-30T08:39:29.338Z,1008.37
2022-11-30T08:40:29.393Z,1008.27
2022-11-30T08:41:29.313Z,1008.33
2022-11-30T08:42:29.292Z,1008.27
2022-11-30T08:43:29.335Z,1008.30
2022-11-30T08:44:29.266Z,1008.25
2022-11-30T08:45:29.276Z,1008.27
2022-11-30T08:47:30.339Z,1008.27
2022-11-30T08:48:29.227Z,1008.29
2022-11-30T08:49:29.195Z,1008.30
2022-11-30T08:50:29.191Z,1008.27
2022-11-30T08:51:42.144Z,1008.26
2022-11-30T08:52:30.152Z,1008.23
2022-11-30T08:53:29.162Z,1008.30
2022-11-30T08:54:29.129Z,1008.32
2022-11-30T08:55:29.121Z,1008.35
2022-11-30T08:56:29.106Z,1008.35
2022-11-30T08:57:29.120Z,1008.36
2022-11-30T08:58:29.085Z,1008.37
2022-11-30T08:59:29.072Z,1008.38
2022-11-30T09:00:29.054Z,1008.42
2022-11-30T09:01:31.531Z,1008.41
2022-11-30T09:02:29.087Z,1008.46
2022-11-30T09:03:29.041Z,1008.45
2022-11-30T09:04:29.003Z,1008.43
2022-11-30T09:05:29.170Z,1008.49
2022-11-30T09:06:28.971Z,1008.43
2022-11-30T09:07:29.069Z,1008.47
2022-11-30T09:08:28.962Z,1008.45
2022-11-30T09:09:28.935Z,1008.46
2022-11-30T09:10:28.930Z,1008.48
2022-11-30T09:11:28.921Z,1008.46
2022-11-30T09:12:28.902Z,1008.45
2022-11-30T09:13:28.896Z,1008.46
2022-11-30T09:14:28.860Z,1008.52
2022-11-30T09:15:28.854Z,1008.58
2022-11-30T09:16:28.867Z,1008.56
2022-11-30T09:17:28.821Z,1008.62
2022-11-30T09:18:28.818Z,1008.60
2022-11-30T09:19:28.797Z,1008.62
2022-11-30T09:20:28.779Z,1008.58
2022-11-30T09:21:28.769Z,1008.57
2022-11-30T09:22:28.757Z,1008.55
2022-11-30T09:23:28.777Z,1008.55
2022-11-30T09:24:28.763Z,1008.58
2022-11-30T09:25:28.736Z,1008.59
2022-11-30T09:26:28.701Z,1008.59
2022-11-30T09:27:28.741Z,1008.65
2022-11-30T09:28:28.690Z,1008.64
2022-11-30T09:29:28.690Z,1008.61
2022-11-30T09:30:28.722Z,1008.63
2022-11-30T09:31:28.653Z,1008.62
2022-11-30T09:32:28.630Z,1008.62
2022-11-30T09:33:28.637Z,1008.64
2022-11-30T09:34:28.613Z,1008.68
2022-11-30T09:35:28.588Z,1008.60
2022-11-30T09:36:28.575Z,1008.64
2022-11-30T09:37:28.556Z,1008.61
2022-11-30T09:38:28.566Z,1008.62
2022-11-30T09:39:28.527Z,1008.62
2022-11-30T09:40:33.916Z,1008.60
2022-11-30T09:41:29.495Z,1008.58
2022-11-30T09:42:28.495Z,1008.62
2022-11-30T09:43:28.486Z,1008.62
2022-11-30T09:44:28.477Z,1008.62
2022-11-30T09:45:28.460Z,1008.60
2022-11-30T09:46:28.530Z,1008.58
2022-11-30T09:47:31.892Z,1008.54
2022-11-30T09:48:28.422Z,1008.53
2022-11-30T09:49:28.426Z,1008.60
2022-11-30T09:50:28.396Z,1008.60
2022-11-30T09:51:28.363Z,1008.58
2022-11-30T09:52:28.365Z,1008.59
2022-11-30T09:53:29.932Z,1008.63
2022-11-30T09:54:28.342Z,1008.64
2022-11-30T09:55:28.316Z,1008.58
2022-11-30T09:57:25.983Z,1008.60
2022-11-30T09:58:25.956Z,1008.65
2022-11-30T09:59:25.934Z,1008.61
2022-11-30T10:00:25.924Z,1008.63
2022-11-30T10:01:29.354Z,1008.55
2022-11-30T10:02:27.008Z,1008.59
2022-11-30T10:03:25.925Z,1008.58
2022-11-30T10:04:25.883Z,1008.60
2022-11-30T10:05:25.939Z,1008.62
2022-11-30T10:06:25.865Z,1008.62
2022-11-30T10:07:25.894Z,1008.61
2022-11-30T10:08:25.832Z,1008.59
2022-11-30T10:09:25.851Z,1008.61
2022-11-30T10:10:33.704Z,1008.54
2022-11-30T10:11:26.792Z,1008.53
2022-11-30T10:12:25.779Z,1008.56
2022-11-30T10:13:25.786Z,1008.57
2022-11-30T10:14:25.749Z,1008.56
2022-11-30T10:15:25.733Z,1008.61
2022-11-30T10:16:25.802Z,1008.57
2022-11-30T10:17:25.722Z,1008.58
2022-11-30T10:18:25.748Z,1008.56
2022-11-30T10:19:25.692Z,1008.61
2022-11-30T10:20:25.670Z,1008.59
2022-11-30T10:21:25.663Z,1008.60
2022-11-30T10:22:25.640Z,1008.62
2022-11-30T10:23:25.661Z,1008.59
2022-11-30T10:24:25.622Z,1008.61
2022-11-30T10:25:25.634Z,1008.59
2022-11-30T10:26:25.619Z,1008.59
2022-11-30T10:27:25.592Z,1008.61
2022-11-30T10:28:46.541Z,1008.62
2022-11-30T10:29:26.556Z,1008.62
2022-11-30T10:30:25.646Z,1008.62
2022-11-30T10:31:25.622Z,1008.59
2022-11-30T10:32:25.533Z,1008.60
2022-11-30T10:33:25.541Z,1008.63
2022-11-30T10:34:25.513Z,1008.55
2022-11-30T10:35:25.479Z,1008.55
2022-11-30T10:36:25.489Z,1008.58
2022-11-30T10:37:25.486Z,1008.50
2022-11-30T10:38:25.480Z,1008.49
2022-11-30T10:39:25.424Z,1008.51
2022-11-30T10:40:25.407Z,1008.49
2022-11-30T10:41:25.410Z,1008.53
2022-11-30T10:42:25.407Z,1008.54
2022-11-30T10:43:25.390Z,1008.55
2022-11-30T10:44:25.367Z,1008.51
2022-11-30T10:45:25.390Z,1008.53
2022-11-30T10:46:25.410Z,1008.47
2022-11-30T10:47:25.318Z,1008.53
2022-11-30T10:48:25.336Z,1008.53
2022-11-30T10:49:25.294Z,1008.47
2022-11-30T10:50:25.303Z,1008.51
2022-11-30T10:51:25.280Z,1008.43
2022-11-30T10:52:25.274Z,1008.46
2022-11-30T10:53:25.245Z,1008.36
2022-11-30T10:54:25.272Z,1008.41
2022-11-30T10:55:25.207Z,1008.38
2022-11-30T10:56:25.200Z,1008.41
2022-11-30T10:57:25.183Z,1008.39
2022-11-30T10:58:25.177Z,1008.38
2022-11-30T10:59:25.173Z,1008.36
2022-11-30T11:00:25.167Z,1008.38
2022-11-30T11:01:25.187Z,1008.38
2022-11-30T11:02:25.207Z,1008.38
2022-11-30T11:03:25.116Z,1008.35
2022-11-30T11:04:25.150Z,1008.36
2022-11-30T11:05:25.076Z,1008.39
2022-11-30T11:06:25.069Z,1008.41
2022-11-30T11:07:25.192Z,1008.37
2022-11-30T11:08:25.152Z,1008.41
2022-11-30T11:09:25.032Z,1008.44
2022-11-30T11:10:25.007Z,1008.44
2022-11-30T11:11:25.024Z,1008.42
2022-11-30T11:12:24.986Z,1008.40
2022-11-30T11:13:25.005Z,1008.40
2022-11-30T11:14:24.988Z,1008.41
2022-11-30T11:15:24.950Z,1008.36
2022-11-30T11:16:25.002Z,1008.33
2022-11-30T11:17:24.917Z,1008.33
2022-11-30T11:18:24.915Z,1008.29
2022-11-30T11:19:24.958Z,1008.27
2022-11-30T11:20:24.888Z,1008.32
2022-11-30T11:21:24.880Z,1008.28
2022-11-30T11:22:25.710Z,1008.25
2022-11-30T11:23:24.892Z,1008.15
2022-11-30T11:24:24.825Z,1008.23
2022-11-30T11:25:24.816Z,1008.22
2022-11-30T11:26:24.807Z,1008.26
2022-11-30T11:27:24.806Z,1008.23
2022-11-30T11:28:24.777Z,1008.24
2022-11-30T11:29:24.934Z,1008.27
2022-11-30T11:30:24.786Z,1008.23
2022-11-30T11:31:24.798Z,1008.21
2022-11-30T11:32:24.764Z,1008.20
2022-11-30T11:33:24.739Z,1008.24
2022-11-30T11:34:24.696Z,1008.17
2022-11-30T11:35:24.685Z,1008.19
2022-11-30T11:36:24.697Z,1008.20
2022-11-30T11:37:24.664Z,1008.19
2022-11-30T11:38:24.661Z,1008.20
2022-11-30T11:39:24.637Z,1008.23
2022-11-30T11:40:24.666Z,1008.20
2022-11-30T11:41:24.604Z,1008.26
2022-11-30T11:42:24.596Z,1008.25
2022-11-30T11:43:24.596Z,1008.28
2022-11-30T11:44:24.563Z,1008.27
2022-11-30T11:45:24.564Z,1008.26
2022-11-30T11:46:24.646Z,1008.27
2022-11-30T11:47:24.556Z,1008.27
2022-11-30T11:48:28.828Z,1008.31
2022-11-30T11:49:24.511Z,1008.32
2022-11-30T11:50:57.741Z,1008.32
2022-11-30T11:51:25.494Z,1008.29
2022-11-30T11:52:24.463Z,1008.32
2022-11-30T11:53:24.585Z,1008.32
2022-11-30T11:54:24.471Z,1008.33
2022-11-30T11:55:24.440Z,1008.33
2022-11-30T11:56:24.441Z,1008.34
2022-11-30T11:57:24.400Z,1008.40
2022-11-30T11:58:24.381Z,1008.34
2022-11-30T11:59:29.365Z,1008.33
2022-11-30T12:00:25.391Z,1008.42
2022-11-30T12:01:40.978Z,1008.37
2022-11-30T12:02:25.374Z,1008.35
2022-11-30T12:03:24.343Z,1008.36
2022-11-30T12:04:24.324Z,1008.35
2022-11-30T12:05:24.283Z,1008.36
2022-11-30T12:06:24.262Z,1008.37
2022-11-30T12:07:24.330Z,1008.36